createdAt,value
2023-05-19T00:05:02.513Z,76.70
2023-05-19T00:10:08.763Z,76.99
2023-05-19T00:15:15.175Z,77.02
2023-05-19T00:20:18.877Z,77.44
2023-05-19T00:25:25.391Z,77.73
2023-05-19T00:30:30.539Z,78.12
2023-05-19T00:35:34.685Z,78.46
2023-05-19T00:40:38.693Z,78.82
2023-05-19T00:45:42.557Z,79.21
2023-05-19T00:50:46.855Z,79.64
2023-05-19T00:55:50.952Z,79.91
2023-05-19T01:00:56.515Z,80.33
2023-05-19T01:06:11.280Z,80.81
2023-05-19T01:11:16.122Z,80.53
2023-05-19T01:16:27.384Z,80.97
2023-05-19T01:21:48.429Z,81.17
2023-05-19T01:27:25.442Z,81.38
2023-05-19T01:32:30.563Z,81.72
2023-05-19T01:37:35.467Z,81.87
2023-05-19T01:42:40.628Z,82.28
2023-05-19T01:47:48.716Z,82.47
2023-05-19T01:52:52.879Z,82.72
2023-05-19T01:58:05.535Z,82.98
2023-05-19T02:03:44.812Z,83.23
2023-05-19T02:08:54.796Z,83.33
2023-05-19T02:14:02.133Z,83.50
2023-05-19T02:19:06.077Z,83.80
2023-05-19T02:24:11.329Z,83.78
2023-05-19T02:29:15.708Z,84.02
2023-05-19T02:34:26.413Z,84.07
2023-05-19T02:39:36.454Z,84.29
2023-05-19T02:44:40.500Z,84.51
2023-05-19T02:49:45.641Z,85.01
2023-05-19T02:54:49.343Z,85.38
2023-05-19T02:59:53.542Z,85.89
2023-05-19T03:04:57.438Z,86.16
2023-05-19T03:10:04.280Z,86.57
2023-05-19T03:15:08.835Z,86.77
2023-05-19T03:20:13.429Z,86.79
2023-05-19T03:25:18.647Z,86.91
2023-05-19T03:30:22.606Z,87.33
2023-05-19T03:35:38.810Z,87.43
2023-05-19T03:40:47.069Z,87.59
2023-05-19T03:45:51.336Z,87.70
2023-05-19T03:51:19.186Z,88.00
2023-05-19T03:56:25.528Z,88.17
2023-05-19T04:01:31.416Z,88.34
2023-05-19T04:06:36.620Z,88.43
2023-05-19T04:11:43.598Z,88.56
2023-05-19T04:16:47.407Z,88.85
2023-05-19T04:21:51.360Z,89.03
2023-05-19T04:26:55.133Z,88.94
2023-05-19T04:32:01.370Z,88.99
2023-05-19T04:37:10.621Z,88.89
2023-05-19T04:42:19.629Z,88.82
2023-05-19T04:47:28.426Z,89.10
2023-05-19T04:52:38.060Z,88.98
2023-05-19T04:57:43.235Z,88.89
2023-05-19T05:02:47.762Z,88.61
2023-05-19T05:07:56.663Z,88.57
2023-05-19T05:13:02.355Z,88.76
2023-05-19T05:18:07.398Z,88.75
2023-05-19T05:23:14.871Z,88.61
2023-05-19T05:28:19.822Z,88.37
2023-05-19T05:33:25.279Z,88.62
2023-05-19T05:38:29.546Z,88.59
2023-05-19T05:43:33.904Z,88.61
2023-05-19T05:48:40.036Z,88.76
2023-05-19T05:53:45.641Z,88.53
2023-05-19T05:58:50.783Z,88.13
2023-05-19T06:03:55.410Z,87.93
2023-05-19T06:09:00.349Z,87.91
2023-05-19T06:14:05.527Z,87.99
2023-05-19T06:19:27.712Z,87.59
2023-05-19T06:24:32.317Z,87.81
2023-05-19T06:29:36.195Z,88.06
2023-05-19T06:34:41.047Z,87.37
2023-05-19T06:39:44.925Z,87.50
2023-05-19T06:44:53.230Z,87.78
2023-05-19T06:49:58.165Z,87.73
2023-05-19T06:55:04.516Z,87.44
2023-05-19T07:00:14.593Z,87.20
2023-05-19T07:05:22.835Z,87.04
2023-05-19T07:10:33.252Z,87.17
2023-05-19T07:15:38.356Z,87.37
2023-05-19T07:20:42.491Z,87.02
2023-05-19T07:25:46.225Z,87.11
2023-05-19T07:30:50.270Z,86.95
2023-05-19T07:35:54.406Z,86.58
2023-05-19T07:40:58.189Z,86.84
2023-05-19T07:46:05.110Z,86.88
2023-05-19T07:51:11.420Z,86.99
2023-05-19T07:56:15.580Z,87.06
2023-05-19T08:01:19.915Z,86.23
2023-05-19T08:06:23.522Z,86.55
2023-05-19T08:11:29.368Z,86.78
2023-05-19T08:16:33.645Z,86.58
2023-05-19T08:21:37.374Z,86.17
2023-05-19T08:26:41.688Z,86.25
2023-05-19T08:31:47.107Z,86.20
2023-05-19T08:36:50.879Z,85.77
2023-05-19T08:41:55.689Z,85.67
2023-05-19T08:47:03.671Z,84.76
2023-05-19T08:52:15.524Z,84.65
2023-05-19T08:57:19.816Z,84.58
2023-05-19T09:02:24.574Z,84.40
2023-05-19T09:07:29.974Z,84.15
2023-05-19T09:12:34.784Z,84.01
2023-05-19T09:17:39.552Z,83.26
2023-05-19T09:22:47.750Z,83.25
2023-05-19T09:27:52.479Z,83.21
2023-05-19T09:32:57.235Z,83.00
2023-05-19T09:38:01.381Z,83.05
2023-05-19T09:43:08.331Z,83.28
2023-05-19T09:48:12.023Z,83.25
2023-05-19T09:53:17.722Z,83.44
2023-05-19T09:58:22.076Z,82.29
2023-05-19T10:03:26.009Z,82.78
2023-05-19T10:08:30.996Z,82.31
2023-05-19T10:13:36.606Z,80.99
2023-05-19T10:18:40.514Z,80.82
2023-05-19T10:23:44.160Z,80.93
2023-05-19T10:28:48.361Z,81.08
2023-05-19T10:34:09.933Z,80.65
2023-05-19T10:39:25.100Z,79.47
2023-05-19T10:44:41.392Z,80.16
2023-05-19T10:49:45.564Z,80.61
2023-05-19T10:54:49.339Z,80.84
2023-05-19T10:59:53.186Z,79.88
2023-05-19T11:05:08.513Z,80.21
2023-05-19T11:10:12.725Z,80.40
2023-05-19T11:15:16.881Z,80.39
2023-05-19T11:20:24.305Z,80.94
2023-05-19T11:25:47.555Z,81.04
2023-05-19T11:30:52.635Z,81.27
2023-05-19T11:36:00.290Z,81.15
2023-05-19T11:41:04.644Z,81.49
2023-05-19T11:46:09.929Z,81.56
2023-05-19T11:51:13.788Z,81.78
2023-05-19T11:56:17.438Z,81.91
2023-05-19T12:01:27.339Z,81.75
2023-05-19T12:06:31.445Z,81.69
2023-05-19T12:11:35.520Z,81.91
2023-05-19T12:16:39.217Z,82.17
2023-05-19T12:21:44.214Z,82.16
2023-05-19T12:26:50.625Z,82.32
2023-05-19T12:31:57.584Z,82.25
2023-05-19T12:37:03.347Z,82.47
2023-05-19T12:42:11.693Z,82.46
2023-05-19T12:47:16.521Z,82.88
2023-05-19T12:52:23.518Z,82.89
2023-05-19T12:57:34.057Z,83.14
2023-05-19T13:02:57.402Z,82.32
2023-05-19T13:08:05.887Z,82.25
2023-05-19T13:13:12.123Z,81.92
2023-05-19T13:18:16.845Z,82.25
2023-05-19T13:23:20.834Z,82.28
2023-05-19T13:28:25.540Z,82.17
2023-05-19T13:33:29.209Z,82.42
2023-05-19T13:38:32.954Z,82.68
2023-05-19T13:43:36.718Z,82.91
2023-05-19T13:48:40.378Z,83.05
2023-05-19T13:53:44.115Z,83.00
2023-05-19T13:58:48.076Z,83.38
2023-05-19T14:03:52.833Z,83.38
2023-05-19T14:08:56.699Z,83.49
2023-05-19T14:14:00.426Z,83.76
2023-05-19T14:19:04.138Z,83.77
2023-05-19T14:24:08.012Z,83.58
2023-05-19T14:29:11.961Z,84.03
2023-05-19T14:34:21.195Z,83.72
2023-05-19T14:39:26.116Z,83.61
2023-05-19T14:44:33.643Z,84.13
2023-05-19T14:49:37.338Z,83.94
2023-05-19T14:54:41.019Z,83.27
2023-05-19T14:59:44.738Z,83.28
2023-05-19T15:04:48.711Z,82.94
2023-05-19T15:09:54.860Z,83.49
2023-05-19T15:14:58.512Z,83.16
2023-05-19T15:20:04.903Z,83.12
2023-05-19T15:25:09.751Z,83.48
2023-05-19T15:30:14.611Z,83.26
2023-05-19T15:35:25.004Z,83.56
2023-05-19T15:40:28.860Z,82.82
2023-05-19T15:45:32.609Z,82.85
2023-05-19T15:50:36.861Z,82.78
2023-05-19T15:55:41.373Z,82.39
2023-05-19T16:00:47.950Z,82.85
2023-05-19T16:05:54.751Z,82.90
2023-05-19T16:11:01.583Z,83.06
2023-05-19T16:16:07.044Z,83.15
2023-05-19T16:21:14.767Z,83.24
2023-05-19T16:26:18.670Z,83.40
2023-05-19T16:31:22.439Z,83.50
2023-05-19T16:36:26.702Z,83.66
2023-05-19T16:41:30.532Z,83.96
2023-05-19T16:46:37.792Z,84.29
2023-05-19T16:51:42.097Z,84.47
2023-05-19T16:56:47.592Z,84.05
2023-05-19T17:01:53.444Z,84.19
2023-05-19T17:06:58.226Z,84.27
2023-05-19T17:12:01.977Z,84.40
2023-05-19T17:17:05.923Z,84.72
2023-05-19T17:22:09.761Z,84.81
2023-05-19T17:27:13.580Z,84.98
2023-05-19T17:32:17.428Z,85.15
2023-05-19T17:37:25.876Z,85.42
2023-05-19T17:42:29.766Z,85.55
2023-05-19T17:47:35.893Z,85.71
2023-05-19T17:52:41.724Z,85.92
2023-05-19T17:57:46.628Z,86.03
2023-05-19T18:02:52.152Z,86.11
2023-05-19T18:07:57.558Z,86.26
2023-05-19T18:13:04.804Z,86.36
2023-05-19T18:18:12.455Z,86.45
2023-05-19T18:23:16.337Z,86.66
2023-05-19T18:28:20.701Z,86.93
2023-05-19T18:33:32.356Z,87.11
2023-05-19T18:38:36.093Z,87.29
2023-05-19T18:43:40.227Z,87.43
2023-05-19T18:48:45.654Z,87.62
2023-05-19T18:53:50.855Z,87.81
2023-05-19T18:58:55.578Z,88.05
2023-05-19T19:04:04.051Z,88.29
2023-05-19T19:09:12.924Z,88.47
2023-05-19T19:14:19.887Z,88.76
2023-05-19T19:19:25.040Z,89.05
2023-05-19T19:24:31.160Z,89.14
2023-05-19T19:29:37.624Z,89.35
2023-05-19T19:34:41.650Z,89.58
2023-05-19T19:39:46.570Z,89.77
2023-05-19T19:44:50.333Z,89.95
2023-05-19T19:49:54.340Z,90.11
2023-05-19T19:55:01.412Z,90.41
2023-05-19T20:00:10.256Z,90.60
2023-05-19T20:05:14.740Z,90.81
2023-05-19T20:10:18.862Z,91.02
2023-05-19T20:15:25.073Z,91.28
2023-05-19T20:20:28.766Z,91.53
2023-05-19T20:25:33.400Z,91.82
2023-05-19T20:30:38.953Z,92.05
2023-05-19T20:35:45.796Z,92.33
2023-05-19T20:40:49.614Z,92.48
2023-05-19T20:45:53.379Z,92.81
2023-05-19T20:50:57.650Z,92.88
2023-05-19T20:56:01.504Z,93.10
2023-05-19T21:01:05.571Z,93.50
2023-05-19T21:06:09.528Z,93.66
2023-05-19T21:11:13.447Z,93.87
2023-05-19T21:16:17.112Z,94.20
2023-05-19T21:21:21.003Z,94.33
2023-05-19T21:26:25.208Z,94.47
2023-05-19T21:31:28.948Z,94.70
2023-05-19T21:36:33.986Z,94.78
2023-05-19T21:41:38.773Z,94.83
2023-05-19T21:46:42.637Z,95.06
2023-05-19T21:51:46.622Z,95.16
2023-05-19T21:56:50.387Z,95.30
2023-05-19T22:01:54.173Z,95.43
2023-05-19T22:06:58.997Z,95.70
2023-05-19T22:12:02.758Z,95.91
2023-05-19T22:17:06.660Z,96.06
2023-05-19T22:22:14.378Z,96.24
2023-05-19T22:27:18.476Z,96.48
2023-05-19T22:32:22.105Z,96.72
2023-05-19T22:37:25.903Z,96.87
2023-05-19T22:42:29.841Z,97.06
2023-05-19T22:47:33.615Z,97.06
2023-05-19T22:52:37.776Z,97.33
2023-05-19T22:57:41.717Z,97.40
2023-05-19T23:02:45.431Z,97.50
2023-05-19T23:07:50.131Z,97.69
2023-05-19T23:12:53.990Z,97.81
2023-05-19T23:17:57.679Z,97.88
2023-05-19T23:23:01.820Z,97.93
2023-05-19T23:28:05.705Z,98.19
2023-05-19T23:33:09.703Z,98.19
2023-05-19T23:38:14.005Z,98.30
2023-05-19T23:43:17.707Z,98.41
2023-05-19T23:48:21.447Z,98.57
2023-05-19T23:53:26.010Z,98.67
2023-05-19T23:58:29.923Z,98.77
